sensor_id;sensor_type;location;lat;lon;timestamp;P1;durP1;ratioP1;P2;durP2;ratioP2
54388;SDS011;40975;50.390;8.640;2023-05-13T00:02:03;5.45;;;3.28;;
54388;SDS011;40975;50.390;8.640;2023-05-13T00:04:30;5.90;;;4.10;;
54388;SDS011;40975;50.390;8.640;2023-05-13T00:06:56;5.32;;;3.78;;
54388;SDS011;40975;50.390;8.640;2023-05-13T00:09:21;4.22;;;3.38;;
54388;SDS011;40975;50.390;8.640;2023-05-13T00:11:46;4.32;;;3.72;;
54388;SDS011;40975;50.390;8.640;2023-05-13T00:14:11;4.57;;;3.42;;
54388;SDS011;40975;50.390;8.640;2023-05-13T00:16:37;6.10;;;3.42;;
54388;SDS011;40975;50.390;8.640;2023-05-13T00:19:02;4.75;;;3.50;;
54388;SDS011;40975;50.390;8.640;2023-05-13T00:21:27;4.82;;;3.55;;
54388;SDS011;40975;50.390;8.640;2023-05-13T00:23:56;3.80;;;3.40;;
54388;SDS011;40975;50.390;8.640;2023-05-13T00:26:21;4.55;;;4.10;;
54388;SDS011;40975;50.390;8.640;2023-05-13T00:28:48;4.80;;;3.40;;
54388;SDS011;40975;50.390;8.640;2023-05-13T00:31:13;5.78;;;3.50;;
54388;SDS011;40975;50.390;8.640;2023-05-13T00:33:39;7.55;;;3.67;;
54388;SDS011;40975;50.390;8.640;2023-05-13T00:36:05;5.30;;;3.85;;
54388;SDS011;40975;50.390;8.640;2023-05-13T00:38:31;7.10;;;4.63;;
54388;SDS011;40975;50.390;8.640;2023-05-13T00:40:57;5.95;;;3.85;;
54388;SDS011;40975;50.390;8.640;2023-05-13T00:43:22;4.05;;;3.65;;
54388;SDS011;40975;50.390;8.640;2023-05-13T00:45:47;5.13;;;3.47;;
54388;SDS011;40975;50.390;8.640;2023-05-13T00:48:13;4.55;;;3.72;;
54388;SDS011;40975;50.390;8.640;2023-05-13T00:50:38;5.18;;;4.13;;
54388;SDS011;40975;50.390;8.640;2023-05-13T00:53:06;5.32;;;4.20;;
54388;SDS011;40975;50.390;8.640;2023-05-13T00:55:31;7.07;;;3.90;;
54388;SDS011;40975;50.390;8.640;2023-05-13T00:57:57;5.30;;;3.42;;
54388;SDS011;40975;50.390;8.640;2023-05-13T01:00:22;7.95;;;3.33;;
54388;SDS011;40975;50.390;8.640;2023-05-13T01:08:03;7.07;;;3.47;;
54388;SDS011;40975;50.390;8.640;2023-05-13T01:10:43;3.85;;;3.33;;
54388;SDS011;40975;50.390;8.640;2023-05-13T01:13:16;6.50;;;3.30;;
54388;SDS011;40975;50.390;8.640;2023-05-13T01:15:52;5.75;;;3.67;;
54388;SDS011;40975;50.390;8.640;2023-05-13T01:18:23;7.93;;;4.00;;
54388;SDS011;40975;50.390;8.640;2023-05-13T01:20:52;5.20;;;3.78;;
54388;SDS011;40975;50.390;8.640;2023-05-13T01:23:18;5.18;;;3.92;;
54388;SDS011;40975;50.390;8.640;2023-05-13T01:25:43;6.25;;;3.67;;
54388;SDS011;40975;50.390;8.640;2023-05-13T01:28:09;5.45;;;4.03;;
54388;SDS011;40975;50.390;8.640;2023-05-13T01:30:37;5.28;;;3.65;;
54388;SDS011;40975;50.390;8.640;2023-05-13T01:33:04;3.67;;;3.05;;
54388;SDS011;40975;50.390;8.640;2023-05-13T01:35:29;6.25;;;3.78;;
54388;SDS011;40975;50.390;8.640;2023-05-13T01:37:56;4.45;;;3.53;;
54388;SDS011;40975;50.390;8.640;2023-05-13T01:40:22;3.72;;;3.10;;
54388;SDS011;40975;50.390;8.640;2023-05-13T01:42:48;4.88;;;3.70;;
54388;SDS011;40975;50.390;8.640;2023-05-13T01:45:14;4.13;;;3.53;;
54388;SDS011;40975;50.390;8.640;2023-05-13T01:47:39;5.82;;;3.25;;
54388;SDS011;40975;50.390;8.640;2023-05-13T01:50:06;8.07;;;3.40;;
54388;SDS011;40975;50.390;8.640;2023-05-13T01:52:33;4.72;;;3.97;;
54388;SDS011;40975;50.390;8.640;2023-05-13T01:54:58;4.78;;;3.42;;
54388;SDS011;40975;50.390;8.640;2023-05-13T01:57:24;4.45;;;4.03;;
54388;SDS011;40975;50.390;8.640;2023-05-13T01:59:49;4.88;;;3.35;;
54388;SDS011;40975;50.390;8.640;2023-05-13T02:02:15;10.77;;;3.85;;
54388;SDS011;40975;50.390;8.640;2023-05-13T02:04:40;8.18;;;3.45;;
54388;SDS011;40975;50.390;8.640;2023-05-13T02:07:06;3.65;;;3.08;;
54388;SDS011;40975;50.390;8.640;2023-05-13T02:09:32;4.55;;;3.42;;
54388;SDS011;40975;50.390;8.640;2023-05-13T02:11:58;4.45;;;3.50;;
54388;SDS011;40975;50.390;8.640;2023-05-13T02:14:24;4.18;;;3.72;;
54388;SDS011;40975;50.390;8.640;2023-05-13T02:16:50;4.45;;;3.65;;
54388;SDS011;40975;50.390;8.640;2023-05-13T02:19:15;3.70;;;3.17;;
54388;SDS011;40975;50.390;8.640;2023-05-13T02:21:40;5.80;;;3.70;;
54388;SDS011;40975;50.390;8.640;2023-05-13T02:24:07;3.60;;;3.30;;
54388;SDS011;40975;50.390;8.640;2023-05-13T02:26:33;4.45;;;3.50;;
54388;SDS011;40975;50.390;8.640;2023-05-13T02:28:59;5.40;;;3.22;;
54388;SDS011;40975;50.390;8.640;2023-05-13T02:31:24;5.75;;;3.55;;
54388;SDS011;40975;50.390;8.640;2023-05-13T02:33:49;4.90;;;3.50;;
54388;SDS011;40975;50.390;8.640;2023-05-13T02:36:15;6.60;;;3.83;;
54388;SDS011;40975;50.390;8.640;2023-05-13T02:38:41;3.92;;;2.95;;
54388;SDS011;40975;50.390;8.640;2023-05-13T02:41:07;5.30;;;3.40;;
54388;SDS011;40975;50.390;8.640;2023-05-13T02:43:33;4.68;;;3.25;;
54388;SDS011;40975;50.390;8.640;2023-05-13T02:46:02;5.03;;;3.25;;
54388;SDS011;40975;50.390;8.640;2023-05-13T02:48:28;3.65;;;3.03;;
54388;SDS011;40975;50.390;8.640;2023-05-13T02:50:54;6.13;;;3.28;;
54388;SDS011;40975;50.390;8.640;2023-05-13T02:53:19;3.80;;;3.15;;
54388;SDS011;40975;50.390;8.640;2023-05-13T02:55:51;3.30;;;2.97;;
54388;SDS011;40975;50.390;8.640;2023-05-13T02:58:16;3.88;;;2.90;;
54388;SDS011;40975;50.390;8.640;2023-05-13T03:00:42;6.72;;;3.97;;
54388;SDS011;40975;50.390;8.640;2023-05-13T03:03:08;3.97;;;3.10;;
54388;SDS011;40975;50.390;8.640;2023-05-13T03:05:33;5.88;;;3.45;;
54388;SDS011;40975;50.390;8.640;2023-05-13T03:07:58;5.30;;;3.30;;
54388;SDS011;40975;50.390;8.640;2023-05-13T03:10:24;3.67;;;2.97;;
54388;SDS011;40975;50.390;8.640;2023-05-13T03:12:49;3.50;;;2.70;;
54388;SDS011;40975;50.390;8.640;2023-05-13T03:15:15;3.90;;;2.92;;
54388;SDS011;40975;50.390;8.640;2023-05-13T03:17:41;3.55;;;2.53;;
54388;SDS011;40975;50.390;8.640;2023-05-13T03:20:08;3.22;;;2.78;;
54388;SDS011;40975;50.390;8.640;2023-05-13T03:22:35;6.03;;;2.95;;
54388;SDS011;40975;50.390;8.640;2023-05-13T03:25:03;3.15;;;2.85;;
54388;SDS011;40975;50.390;8.640;2023-05-13T03:27:38;3.15;;;2.83;;
54388;SDS011;40975;50.390;8.640;2023-05-13T03:30:05;4.38;;;3.00;;
54388;SDS011;40975;50.390;8.640;2023-05-13T03:32:33;6.07;;;3.05;;
54388;SDS011;40975;50.390;8.640;2023-05-13T03:34:59;5.45;;;3.00;;
54388;SDS011;40975;50.390;8.640;2023-05-13T03:37:25;4.68;;;2.92;;
54388;SDS011;40975;50.390;8.640;2023-05-13T03:39:51;3.75;;;3.10;;
54388;SDS011;40975;50.390;8.640;2023-05-13T03:42:17;3.97;;;2.95;;
54388;SDS011;40975;50.390;8.640;2023-05-13T03:44:42;3.42;;;2.90;;
54388;SDS011;40975;50.390;8.640;2023-05-13T03:47:09;3.83;;;2.88;;
54388;SDS011;40975;50.390;8.640;2023-05-13T03:49:35;6.07;;;2.90;;
54388;SDS011;40975;50.390;8.640;2023-05-13T03:52:01;3.10;;;2.80;;
54388;SDS011;40975;50.390;8.640;2023-05-13T03:54:26;4.75;;;3.00;;
54388;SDS011;40975;50.390;8.640;2023-05-13T03:56:51;5.90;;;2.75;;
54388;SDS011;40975;50.390;8.640;2023-05-13T03:59:17;3.30;;;2.80;;
54388;SDS011;40975;50.390;8.640;2023-05-13T04:01:42;3.15;;;2.85;;
54388;SDS011;40975;50.390;8.640;2023-05-13T04:04:07;5.10;;;3.20;;
54388;SDS011;40975;50.390;8.640;2023-05-13T04:06:33;2.67;;;2.42;;
54388;SDS011;40975;50.390;8.640;2023-05-13T04:08:58;3.60;;;3.08;;
54388;SDS011;40975;50.390;8.640;2023-05-13T04:11:25;4.55;;;3.00;;
54388;SDS011;40975;50.390;8.640;2023-05-13T04:13:50;3.08;;;2.78;;
54388;SDS011;40975;50.390;8.640;2023-05-13T04:16:15;4.20;;;3.20;;
54388;SDS011;40975;50.390;8.640;2023-05-13T04:18:41;5.55;;;3.00;;
54388;SDS011;40975;50.390;8.640;2023-05-13T04:21:06;3.83;;;2.83;;
54388;SDS011;40975;50.390;8.640;2023-05-13T04:23:32;6.80;;;3.20;;
54388;SDS011;40975;50.390;8.640;2023-05-13T04:25:58;6.45;;;3.35;;
54388;SDS011;40975;50.390;8.640;2023-05-13T04:28:23;2.88;;;2.60;;
54388;SDS011;40975;50.390;8.640;2023-05-13T04:30:51;3.83;;;3.20;;
54388;SDS011;40975;50.390;8.640;2023-05-13T04:33:16;6.00;;;3.55;;
54388;SDS011;40975;50.390;8.640;2023-05-13T04:35:44;3.55;;;2.65;;
54388;SDS011;40975;50.390;8.640;2023-05-13T04:38:10;6.88;;;3.10;;
54388;SDS011;40975;50.390;8.640;2023-05-13T04:40:37;5.50;;;2.83;;
54388;SDS011;40975;50.390;8.640;2023-05-13T04:43:10;6.30;;;3.25;;
54388;SDS011;40975;50.390;8.640;2023-05-13T04:45:43;3.70;;;3.25;;
54388;SDS011;40975;50.390;8.640;2023-05-13T04:48:11;5.25;;;3.50;;
54388;SDS011;40975;50.390;8.640;2023-05-13T04:50:36;4.95;;;3.30;;
54388;SDS011;40975;50.390;8.640;2023-05-13T04:53:01;4.40;;;3.03;;
54388;SDS011;40975;50.390;8.640;2023-05-13T04:55:27;5.38;;;2.92;;
54388;SDS011;40975;50.390;8.640;2023-05-13T04:57:53;4.13;;;3.30;;
54388;SDS011;40975;50.390;8.640;2023-05-13T05:00:19;4.53;;;3.47;;
54388;SDS011;40975;50.390;8.640;2023-05-13T05:02:47;6.90;;;3.33;;
54388;SDS011;40975;50.390;8.640;2023-05-13T05:05:12;3.58;;;3.15;;
54388;SDS011;40975;50.390;8.640;2023-05-13T05:07:38;5.65;;;3.50;;
54388;SDS011;40975;50.390;8.640;2023-05-13T05:10:05;3.55;;;3.17;;
54388;SDS011;40975;50.390;8.640;2023-05-13T05:12:32;3.70;;;3.40;;
54388;SDS011;40975;50.390;8.640;2023-05-13T05:14:57;6.03;;;3.80;;
54388;SDS011;40975;50.390;8.640;2023-05-13T05:17:22;7.10;;;3.35;;
54388;SDS011;40975;50.390;8.640;2023-05-13T05:19:48;4.85;;;3.85;;
54388;SDS011;40975;50.390;8.640;2023-05-13T05:22:13;6.40;;;4.25;;
54388;SDS011;40975;50.390;8.640;2023-05-13T05:24:39;3.33;;;3.03;;
54388;SDS011;40975;50.390;8.640;2023-05-13T05:27:04;3.72;;;3.33;;
54388;SDS011;40975;50.390;8.640;2023-05-13T05:29:31;4.07;;;3.40;;
54388;SDS011;40975;50.390;8.640;2023-05-13T05:31:56;4.07;;;3.47;;
54388;SDS011;40975;50.390;8.640;2023-05-13T05:34:22;4.00;;;3.58;;
54388;SDS011;40975;50.390;8.640;2023-05-13T05:36:47;4.13;;;3.22;;
54388;SDS011;40975;50.390;8.640;2023-05-13T05:39:14;3.00;;;2.70;;
54388;SDS011;40975;50.390;8.640;2023-05-13T05:41:39;4.43;;;3.10;;
54388;SDS011;40975;50.390;8.640;2023-05-13T05:44:05;4.30;;;3.42;;
54388;SDS011;40975;50.390;8.640;2023-05-13T05:46:31;3.08;;;2.78;;
54388;SDS011;40975;50.390;8.640;2023-05-13T05:48:58;3.97;;;3.25;;
54388;SDS011;40975;50.390;8.640;2023-05-13T05:51:24;4.03;;;3.25;;
54388;SDS011;40975;50.390;8.640;2023-05-13T05:53:49;3.75;;;3.10;;
54388;SDS011;40975;50.390;8.640;2023-05-13T05:56:15;3.30;;;3.00;;
54388;SDS011;40975;50.390;8.640;2023-05-13T05:58:42;4.57;;;3.50;;
54388;SDS011;40975;50.390;8.640;2023-05-13T06:01:08;5.13;;;3.35;;
54388;SDS011;40975;50.390;8.640;2023-05-13T06:03:33;5.88;;;3.10;;
54388;SDS011;40975;50.390;8.640;2023-05-13T06:05:59;3.50;;;3.20;;
54388;SDS011;40975;50.390;8.640;2023-05-13T06:08:24;6.72;;;2.90;;
54388;SDS011;40975;50.390;8.640;2023-05-13T06:10:54;3.35;;;3.00;;
54388;SDS011;40975;50.390;8.640;2023-05-13T06:13:21;6.10;;;3.13;;
54388;SDS011;40975;50.390;8.640;2023-05-13T06:15:47;3.92;;;3.10;;
54388;SDS011;40975;50.390;8.640;2023-05-13T06:18:12;8.85;;;3.38;;
54388;SDS011;40975;50.390;8.640;2023-05-13T06:20:38;3.53;;;3.22;;
54388;SDS011;40975;50.390;8.640;2023-05-13T06:23:04;3.70;;;3.30;;
54388;SDS011;40975;50.390;8.640;2023-05-13T06:25:29;3.20;;;2.88;;
54388;SDS011;40975;50.390;8.640;2023-05-13T06:27:54;4.38;;;3.33;;
54388;SDS011;40975;50.390;8.640;2023-05-13T06:30:20;3.88;;;3.30;;
54388;SDS011;40975;50.390;8.640;2023-05-13T06:32:47;4.93;;;3.30;;
54388;SDS011;40975;50.390;8.640;2023-05-13T06:35:12;6.22;;;3.17;;
54388;SDS011;40975;50.390;8.640;2023-05-13T06:37:38;4.22;;;3.45;;
54388;SDS011;40975;50.390;8.640;2023-05-13T06:40:03;5.95;;;3.38;;
54388;SDS011;40975;50.390;8.640;2023-05-13T06:42:32;5.45;;;3.60;;
54388;SDS011;40975;50.390;8.640;2023-05-13T06:44:59;4.13;;;3.72;;
54388;SDS011;40975;50.390;8.640;2023-05-13T06:47:28;5.25;;;3.58;;
54388;SDS011;40975;50.390;8.640;2023-05-13T06:49:53;3.65;;;3.08;;
54388;SDS011;40975;50.390;8.640;2023-05-13T06:52:19;5.65;;;3.05;;
54388;SDS011;40975;50.390;8.640;2023-05-13T06:54:44;4.60;;;3.28;;
54388;SDS011;40975;50.390;8.640;2023-05-13T06:57:09;4.60;;;3.15;;
54388;SDS011;40975;50.390;8.640;2023-05-13T06:59:34;5.43;;;3.03;;
54388;SDS011;40975;50.390;8.640;2023-05-13T07:02:00;3.08;;;2.78;;
54388;SDS011;40975;50.390;8.640;2023-05-13T07:04:25;3.15;;;2.80;;
54388;SDS011;40975;50.390;8.640;2023-05-13T07:06:50;3.10;;;2.80;;
54388;SDS011;40975;50.390;8.640;2023-05-13T07:09:16;4.15;;;2.70;;
54388;SDS011;40975;50.390;8.640;2023-05-13T07:11:41;3.20;;;2.90;;
54388;SDS011;40975;50.390;8.640;2023-05-13T07:14:07;2.97;;;2.67;;
54388;SDS011;40975;50.390;8.640;2023-05-13T07:16:32;4.57;;;3.00;;
54388;SDS011;40975;50.390;8.640;2023-05-13T07:18:57;4.43;;;2.60;;
54388;SDS011;40975;50.390;8.640;2023-05-13T07:21:23;4.38;;;2.60;;
54388;SDS011;40975;50.390;8.640;2023-05-13T07:23:48;2.35;;;2.15;;
54388;SDS011;40975;50.390;8.640;2023-05-13T07:26:13;3.33;;;2.75;;
54388;SDS011;40975;50.390;8.640;2023-05-13T07:28:39;6.45;;;2.60;;
54388;SDS011;40975;50.390;8.640;2023-05-13T07:31:04;3.10;;;2.80;;
54388;SDS011;40975;50.390;8.640;2023-05-13T07:33:30;3.33;;;3.05;;
54388;SDS011;40975;50.390;8.640;2023-05-13T07:35:55;4.35;;;2.70;;
54388;SDS011;40975;50.390;8.640;2023-05-13T07:38:21;3.30;;;2.55;;
54388;SDS011;40975;50.390;8.640;2023-05-13T07:40:46;4.57;;;2.90;;
54388;SDS011;40975;50.390;8.640;2023-05-13T07:43:12;2.33;;;2.13;;
54388;SDS011;40975;50.390;8.640;2023-05-13T07:45:38;3.53;;;2.42;;
54388;SDS011;40975;50.390;8.640;2023-05-13T07:48:04;2.72;;;2.08;;
54388;SDS011;40975;50.390;8.640;2023-05-13T07:50:30;4.60;;;2.85;;
54388;SDS011;40975;50.390;8.640;2023-05-13T07:52:56;2.45;;;2.25;;
54388;SDS011;40975;50.390;8.640;2023-05-13T07:55:21;2.67;;;2.30;;
54388;SDS011;40975;50.390;8.640;2023-05-13T07:57:47;3.00;;;2.10;;
54388;SDS011;40975;50.390;8.640;2023-05-13T08:00:12;3.17;;;2.25;;
54388;SDS011;40975;50.390;8.640;2023-05-13T08:02:40;2.65;;;1.90;;
54388;SDS011;40975;50.390;8.640;2023-05-13T08:05:06;2.40;;;2.13;;
54388;SDS011;40975;50.390;8.640;2023-05-13T08:07:32;5.22;;;3.00;;
54388;SDS011;40975;50.390;8.640;2023-05-13T08:09:57;2.80;;;2.40;;
54388;SDS011;40975;50.390;8.640;2023-05-13T08:12:22;5.35;;;2.65;;
54388;SDS011;40975;50.390;8.640;2023-05-13T08:14:48;2.85;;;2.40;;
54388;SDS011;40975;50.390;8.640;2023-05-13T08:17:13;5.28;;;2.85;;
54388;SDS011;40975;50.390;8.640;2023-05-13T08:19:38;4.07;;;3.17;;
54388;SDS011;40975;50.390;8.640;2023-05-13T08:22:04;3.10;;;2.70;;
54388;SDS011;40975;50.390;8.640;2023-05-13T08:24:30;4.55;;;3.42;;
54388;SDS011;40975;50.390;8.640;2023-05-13T08:26:55;3.17;;;2.83;;
54388;SDS011;40975;50.390;8.640;2023-05-13T08:29:20;4.03;;;3.15;;
54388;SDS011;40975;50.390;8.640;2023-05-13T08:31:46;4.95;;;3.15;;
54388;SDS011;40975;50.390;8.640;2023-05-13T08:34:11;4.63;;;3.22;;
54388;SDS011;40975;50.390;8.640;2023-05-13T08:36:36;3.30;;;3.00;;
54388;SDS011;40975;50.390;8.640;2023-05-13T08:39:02;3.78;;;2.97;;
54388;SDS011;40975;50.390;8.640;2023-05-13T08:41:28;3.60;;;2.70;;
54388;SDS011;40975;50.390;8.640;2023-05-13T08:43:55;3.35;;;2.55;;
54388;SDS011;40975;50.390;8.640;2023-05-13T08:46:22;2.70;;;2.50;;
54388;SDS011;40975;50.390;8.640;2023-05-13T08:48:49;2.47;;;2.28;;
54388;SDS011;40975;50.390;8.640;2023-05-13T08:51:14;2.10;;;1.90;;
54388;SDS011;40975;50.390;8.640;2023-05-13T08:53:40;1.58;;;1.48;;
54388;SDS011;40975;50.390;8.640;2023-05-13T08:56:08;2.13;;;1.90;;
54388;SDS011;40975;50.390;8.640;2023-05-13T08:58:34;2.72;;;1.58;;
54388;SDS011;40975;50.390;8.640;2023-05-13T09:00:59;1.80;;;1.60;;
54388;SDS011;40975;50.390;8.640;2023-05-13T09:03:26;1.70;;;1.60;;
54388;SDS011;40975;50.390;8.640;2023-05-13T09:05:52;1.63;;;1.50;;
54388;SDS011;40975;50.390;8.640;2023-05-13T09:08:18;1.50;;;1.40;;
54388;SDS011;40975;50.390;8.640;2023-05-13T09:10:43;1.85;;;1.35;;
54388;SDS011;40975;50.390;8.640;2023-05-13T09:13:10;1.60;;;1.20;;
54388;SDS011;40975;50.390;8.640;2023-05-13T09:15:36;1.30;;;1.20;;
54388;SDS011;40975;50.390;8.640;2023-05-13T09:18:05;3.00;;;1.67;;
54388;SDS011;40975;50.390;8.640;2023-05-13T09:20:31;2.92;;;1.50;;
54388;SDS011;40975;50.390;8.640;2023-05-13T09:23:01;1.38;;;1.27;;
54388;SDS011;40975;50.390;8.640;2023-05-13T09:25:28;1.50;;;1.20;;
54388;SDS011;40975;50.390;8.640;2023-05-13T09:27:55;2.20;;;1.38;;
54388;SDS011;40975;50.390;8.640;2023-05-13T09:30:40;2.90;;;1.42;;
54388;SDS011;40975;50.390;8.640;2023-05-13T09:33:07;1.83;;;1.17;;
54388;SDS011;40975;50.390;8.640;2023-05-13T09:35:34;1.38;;;1.27;;
54388;SDS011;40975;50.390;8.640;2023-05-13T09:38:01;2.55;;;1.73;;
54388;SDS011;40975;50.390;8.640;2023-05-13T09:40:36;3.20;;;1.73;;
54388;SDS011;40975;50.390;8.640;2023-05-13T09:43:02;2.80;;;1.50;;
54388;SDS011;40975;50.390;8.640;2023-05-13T09:45:27;1.88;;;1.50;;
54388;SDS011;40975;50.390;8.640;2023-05-13T09:47:52;3.10;;;1.60;;
54388;SDS011;40975;50.390;8.640;2023-05-13T09:50:18;1.50;;;1.40;;
54388;SDS011;40975;50.390;8.640;2023-05-13T09:52:44;1.73;;;1.40;;
54388;SDS011;40975;50.390;8.640;2023-05-13T09:55:10;2.38;;;1.60;;
54388;SDS011;40975;50.390;8.640;2023-05-13T09:57:36;2.75;;;1.55;;
54388;SDS011;40975;50.390;8.640;2023-05-13T10:00:03;1.60;;;1.50;;
54388;SDS011;40975;50.390;8.640;2023-05-13T10:02:35;1.65;;;1.55;;
54388;SDS011;40975;50.390;8.640;2023-05-13T10:05:02;2.22;;;1.60;;
54388;SDS011;40975;50.390;8.640;2023-05-13T10:07:29;1.75;;;1.65;;
54388;SDS011;40975;50.390;8.640;2023-05-13T10:09:59;2.00;;;1.70;;
54388;SDS011;40975;50.390;8.640;2023-05-13T10:12:26;2.85;;;1.40;;
54388;SDS011;40975;50.390;8.640;2023-05-13T10:14:55;2.25;;;1.75;;
54388;SDS011;40975;50.390;8.640;2023-05-13T10:17:22;1.50;;;1.40;;
54388;SDS011;40975;50.390;8.640;2023-05-13T10:19:52;1.70;;;1.60;;
54388;SDS011;40975;50.390;8.640;2023-05-13T10:22:28;1.60;;;1.38;;
54388;SDS011;40975;50.390;8.640;2023-05-13T10:24:55;1.73;;;1.63;;
54388;SDS011;40975;50.390;8.640;2023-05-13T10:27:27;5.22;;;1.75;;
54388;SDS011;40975;50.390;8.640;2023-05-13T10:29:55;2.42;;;1.40;;
54388;SDS011;40975;50.390;8.640;2023-05-13T10:32:25;1.90;;;1.80;;
54388;SDS011;40975;50.390;8.640;2023-05-13T10:45:32;1.77;;;1.30;;
54388;SDS011;40975;50.390;8.640;2023-05-13T10:47:57;2.33;;;2.05;;
54388;SDS011;40975;50.390;8.640;2023-05-13T10:50:30;2.13;;;1.63;;
54388;SDS011;40975;50.390;8.640;2023-05-13T10:52:56;1.90;;;1.58;;
54388;SDS011;40975;50.390;8.640;2023-05-13T10:55:24;3.40;;;1.90;;
54388;SDS011;40975;50.390;8.640;2023-05-13T10:58:06;2.15;;;1.95;;
54388;SDS011;40975;50.390;8.640;2023-05-13T11:00:39;1.70;;;1.60;;
54388;SDS011;40975;50.390;8.640;2023-05-13T11:03:13;2.10;;;1.90;;
54388;SDS011;40975;50.390;8.640;2023-05-13T11:08:44;1.70;;;1.60;;
54388;SDS011;40975;50.390;8.640;2023-05-13T11:13:49;3.33;;;1.80;;
54388;SDS011;40975;50.390;8.640;2023-05-13T11:16:16;4.27;;;1.70;;
54388;SDS011;40975;50.390;8.640;2023-05-13T11:18:42;3.33;;;2.03;;
54388;SDS011;40975;50.390;8.640;2023-05-13T11:21:07;2.08;;;1.80;;
54388;SDS011;40975;50.390;8.640;2023-05-13T11:23:34;1.63;;;1.52;;
54388;SDS011;40975;50.390;8.640;2023-05-13T11:26:25;1.90;;;1.80;;
54388;SDS011;40975;50.390;8.640;2023-05-13T11:28:58;2.10;;;1.60;;
54388;SDS011;40975;50.390;8.640;2023-05-13T11:31:24;1.58;;;1.48;;
54388;SDS011;40975;50.390;8.640;2023-05-13T11:36:38;3.03;;;1.80;;
54388;SDS011;40975;50.390;8.640;2023-05-13T11:39:05;1.92;;;1.83;;
54388;SDS011;40975;50.390;8.640;2023-05-13T11:41:35;2.33;;;1.75;;
54388;SDS011;40975;50.390;8.640;2023-05-13T11:44:03;2.15;;;1.67;;
54388;SDS011;40975;50.390;8.640;2023-05-13T11:46:29;2.90;;;1.90;;
54388;SDS011;40975;50.390;8.640;2023-05-13T11:48:55;2.58;;;1.85;;
54388;SDS011;40975;50.390;8.640;2023-05-13T11:51:20;2.13;;;1.63;;
54388;SDS011;40975;50.390;8.640;2023-05-13T11:53:46;2.97;;;1.85;;
54388;SDS011;40975;50.390;8.640;2023-05-13T11:56:11;1.70;;;1.60;;
54388;SDS011;40975;50.390;8.640;2023-05-13T11:58:37;2.45;;;2.00;;
54388;SDS011;40975;50.390;8.640;2023-05-13T12:01:02;2.80;;;2.20;;
54388;SDS011;40975;50.390;8.640;2023-05-13T12:03:28;2.75;;;1.73;;
54388;SDS011;40975;50.390;8.640;2023-05-13T12:06:02;2.42;;;1.60;;
54388;SDS011;40975;50.390;8.640;2023-05-13T12:08:29;3.92;;;1.85;;
54388;SDS011;40975;50.390;8.640;2023-05-13T12:10:54;3.95;;;2.10;;
54388;SDS011;40975;50.390;8.640;2023-05-13T12:13:20;2.15;;;1.95;;
54388;SDS011;40975;50.390;8.640;2023-05-13T12:15:46;2.20;;;2.00;;
54388;SDS011;40975;50.390;8.640;2023-05-13T12:18:13;5.10;;;2.47;;
54388;SDS011;40975;50.390;8.640;2023-05-13T12:20:38;3.15;;;1.63;;
54388;SDS011;40975;50.390;8.640;2023-05-13T12:23:04;1.90;;;1.80;;
54388;SDS011;40975;50.390;8.640;2023-05-13T12:30:36;2.35;;;1.70;;
54388;SDS011;40975;50.390;8.640;2023-05-13T12:33:02;2.53;;;1.52;;
54388;SDS011;40975;50.390;8.640;2023-05-13T12:35:31;2.20;;;1.60;;
54388;SDS011;40975;50.390;8.640;2023-05-13T12:38:03;1.48;;;1.23;;
54388;SDS011;40975;50.390;8.640;2023-05-13T12:40:29;2.78;;;1.20;;
54388;SDS011;40975;50.390;8.640;2023-05-13T12:42:59;3.25;;;1.70;;
54388;SDS011;40975;50.390;8.640;2023-05-13T12:45:31;4.85;;;1.77;;
54388;SDS011;40975;50.390;8.640;2023-05-13T12:47:58;3.83;;;1.73;;
54388;SDS011;40975;50.390;8.640;2023-05-13T12:50:24;2.22;;;1.40;;
54388;SDS011;40975;50.390;8.640;2023-05-13T12:52:51;3.33;;;1.50;;
54388;SDS011;40975;50.390;8.640;2023-05-13T12:55:17;1.85;;;1.40;;
54388;SDS011;40975;50.390;8.640;2023-05-13T12:57:43;4.30;;;1.83;;
54388;SDS011;40975;50.390;8.640;2023-05-13T13:00:19;1.73;;;1.45;;
54388;SDS011;40975;50.390;8.640;2023-05-13T13:02:44;1.42;;;1.33;;
54388;SDS011;40975;50.390;8.640;2023-05-13T13:05:10;2.45;;;1.50;;
54388;SDS011;40975;50.390;8.640;2023-05-13T13:07:35;4.10;;;1.90;;
54388;SDS011;40975;50.390;8.640;2023-05-13T13:10:03;7.03;;;2.00;;
54388;SDS011;40975;50.390;8.640;2023-05-13T13:12:29;2.47;;;1.70;;
54388;SDS011;40975;50.390;8.640;2023-05-13T13:14:54;2.65;;;1.55;;
54388;SDS011;40975;50.390;8.640;2023-05-13T13:17:20;1.92;;;1.30;;
54388;SDS011;40975;50.390;8.640;2023-05-13T13:19:45;1.10;;;1.00;;
54388;SDS011;40975;50.390;8.640;2023-05-13T13:22:11;2.00;;;1.15;;
54388;SDS011;40975;50.390;8.640;2023-05-13T13:24:36;2.33;;;1.40;;
54388;SDS011;40975;50.390;8.640;2023-05-13T13:27:01;1.95;;;1.48;;
54388;SDS011;40975;50.390;8.640;2023-05-13T13:29:27;0.95;;;0.95;;
54388;SDS011;40975;50.390;8.640;2023-05-13T13:31:52;4.03;;;1.30;;
54388;SDS011;40975;50.390;8.640;2023-05-13T13:34:17;1.10;;;1.00;;
54388;SDS011;40975;50.390;8.640;2023-05-13T13:36:43;1.80;;;1.55;;
54388;SDS011;40975;50.390;8.640;2023-05-13T13:39:08;3.80;;;1.15;;
54388;SDS011;40975;50.390;8.640;2023-05-13T13:41:33;2.38;;;1.30;;
54388;SDS011;40975;50.390;8.640;2023-05-13T13:43:59;1.25;;;1.15;;
54388;SDS011;40975;50.390;8.640;2023-05-13T13:46:24;1.60;;;1.48;;
54388;SDS011;40975;50.390;8.640;2023-05-13T13:48:49;1.38;;;1.27;;
54388;SDS011;40975;50.390;8.640;2023-05-13T13:51:15;1.23;;;1.13;;
54388;SDS011;40975;50.390;8.640;2023-05-13T13:53:40;1.30;;;1.20;;
54388;SDS011;40975;50.390;8.640;2023-05-13T13:56:05;2.88;;;1.10;;
54388;SDS011;40975;50.390;8.640;2023-05-13T13:58:31;1.90;;;1.20;;
54388;SDS011;40975;50.390;8.640;2023-05-13T14:00:56;1.65;;;1.40;;
54388;SDS011;40975;50.390;8.640;2023-05-13T14:03:21;1.90;;;1.30;;
54388;SDS011;40975;50.390;8.640;2023-05-13T14:05:47;1.95;;;1.30;;
54388;SDS011;40975;50.390;8.640;2023-05-13T14:08:12;1.33;;;1.10;;
54388;SDS011;40975;50.390;8.640;2023-05-13T14:10:38;2.28;;;1.00;;
54388;SDS011;40975;50.390;8.640;2023-05-13T14:13:04;1.10;;;1.00;;
54388;SDS011;40975;50.390;8.640;2023-05-13T14:15:29;1.45;;;0.90;;
54388;SDS011;40975;50.390;8.640;2023-05-13T14:17:55;2.25;;;1.20;;
54388;SDS011;40975;50.390;8.640;2023-05-13T14:20:21;1.52;;;1.40;;
54388;SDS011;40975;50.390;8.640;2023-05-13T14:22:48;1.33;;;1.23;;
54388;SDS011;40975;50.390;8.640;2023-05-13T14:25:14;1.33;;;1.17;;
54388;SDS011;40975;50.390;8.640;2023-05-13T14:27:39;1.65;;;1.10;;
54388;SDS011;40975;50.390;8.640;2023-05-13T14:30:05;1.25;;;1.15;;
54388;SDS011;40975;50.390;8.640;2023-05-13T14:32:31;2.42;;;1.20;;
54388;SDS011;40975;50.390;8.640;2023-05-13T14:34:57;1.40;;;1.10;;
54388;SDS011;40975;50.390;8.640;2023-05-13T14:37:22;1.25;;;1.15;;
54388;SDS011;40975;50.390;8.640;2023-05-13T14:39:47;1.98;;;1.20;;
54388;SDS011;40975;50.390;8.640;2023-05-13T14:42:13;4.88;;;1.40;;
54388;SDS011;40975;50.390;8.640;2023-05-13T14:44:38;1.33;;;1.10;;
54388;SDS011;40975;50.390;8.640;2023-05-13T14:47:05;3.63;;;1.35;;
54388;SDS011;40975;50.390;8.640;2023-05-13T14:49:31;1.58;;;1.48;;
54388;SDS011;40975;50.390;8.640;2023-05-13T14:51:56;1.70;;;1.15;;
54388;SDS011;40975;50.390;8.640;2023-05-13T14:54:21;2.35;;;1.25;;
54388;SDS011;40975;50.390;8.640;2023-05-13T14:56:47;3.03;;;1.63;;
54388;SDS011;40975;50.390;8.640;2023-05-13T14:59:12;3.83;;;1.17;;
54388;SDS011;40975;50.390;8.640;2023-05-13T15:01:37;2.17;;;1.40;;
54388;SDS011;40975;50.390;8.640;2023-05-13T15:04:03;1.27;;;1.17;;
54388;SDS011;40975;50.390;8.640;2023-05-13T15:06:28;1.92;;;1.40;;
54388;SDS011;40975;50.390;8.640;2023-05-13T15:08:53;2.33;;;1.42;;
54388;SDS011;40975;50.390;8.640;2023-05-13T15:11:20;1.60;;;1.45;;
54388;SDS011;40975;50.390;8.640;2023-05-13T15:13:45;1.60;;;1.48;;